Time;durP1;ratioP1;P1;durP2;ratioP2;P2;SDS_P1;SDS_P2;PMS_P1;PMS_P2;Temp;Humidity;BMP_temperature;BMP_pressure;BME280_temperature;BME280_humidity;BME280_pressure;Samples;Min_cycle;Max_cycle;Signal;HPM_P1;HPM_P2
2021/12/30 00:01:23;;;;;;;23.75;4.25;;;15.10;65.30;;;;;;4983048;28;20501;-53
2021/12/30 00:03:49;;;;;;;19.27;3.67;;;15.10;65.00;;;;;;4984819;28;20026;-55
2021/12/30 00:06:18;;;;;;;20.98;4.00;;;15.10;64.70;;;;;;4992070;28;20412;-52
2021/12/30 00:08:45;;;;;;;20.48;3.60;;;15.10;64.50;;;;;;4984697;28;20038;-57
2021/12/30 00:11:12;;;;;;;18.58;4.07;;;15.10;64.30;;;;;;5001148;28;20033;-53
2021/12/30 00:13:44;;;;;;;16.55;3.55;;;15.10;64.20;;;;;;4993300;28;20034;-55
2021/12/30 00:16:11;;;;;;;18.65;3.97;;;15.10;64.00;;;;;;4977168;28;20051;-55
2021/12/30 00:18:38;;;;;;;18.73;3.78;;;15.10;63.90;;;;;;4999483;28;20041;-56
2021/12/30 00:21:04;;;;;;;18.38;3.47;;;15.10;63.90;;;;;;5003482;28;20026;-55
2021/12/30 00:23:31;;;;;;;24.80;4.32;;;15.10;63.90;;;;;;5000498;28;20044;-52
2021/12/30 00:25:57;;;;;;;15.15;3.20;;;15.10;63.90;;;;;;4999217;28;20046;-54
2021/12/30 00:28:23;;;;;;;24.73;4.90;;;15.10;63.70;;;;;;4998633;28;20434;-55
2021/12/30 00:30:51;;;;;;;21.38;3.67;;;15.10;63.40;;;;;;5001157;28;20382;-55
2021/12/30 00:33:17;;;;;;;13.05;2.80;;;15.10;63.30;;;;;;5001286;28;20022;-54
2021/12/30 00:35:44;;;;;;;16.83;3.35;;;15.10;63.30;;;;;;5003062;28;20041;-55
2021/12/30 00:38:10;;;;;;;21.48;4.55;;;15.10;63.40;;;;;;4998885;28;20022;-55
2021/12/30 00:40:37;;;;;;;17.73;3.70;;;15.10;63.30;;;;;;5001852;28;20030;-55
2021/12/30 00:43:05;;;;;;;23.30;3.75;;;15.10;63.20;;;;;;4999698;28;20378;-55
2021/12/30 00:45:32;;;;;;;15.90;3.17;;;15.10;63.20;;;;;;5001816;28;20034;-54
2021/12/30 00:47:59;;;;;;;17.73;3.33;;;15.10;63.30;;;;;;4995259;28;20029;-55
2021/12/30 00:50:27;;;;;;;17.30;3.35;;;15.00;63.10;;;;;;5000843;28;20013;-56
2021/12/30 00:52:53;;;;;;;23.58;4.40;;;15.10;63.20;;;;;;5001733;28;20029;-53
2021/12/30 00:55:20;;;;;;;20.77;3.67;;;15.00;63.00;;;;;;5001810;28;20041;-54
2021/12/30 00:57:46;;;;;;;18.08;3.45;;;15.00;62.90;;;;;;4997765;28;20026;-52
2021/12/30 01:00:17;;;;;;;18.30;3.85;;;15.00;62.80;;;;;;5000873;28;20034;-54
2021/12/30 01:02:43;;;;;;;16.35;3.88;;;15.00;62.60;;;;;;4978123;28;20033;-53
2021/12/30 01:05:11;;;;;;;13.65;3.10;;;15.00;62.80;;;;;;5001633;28;20868;-54
2021/12/30 01:07:38;;;;;;;15.50;3.22;;;15.00;62.70;;;;;;4981327;28;20034;-53
2021/12/30 01:10:08;;;;;;;20.30;3.53;;;15.00;62.80;;;;;;5002526;28;20029;-53
2021/12/30 01:12:35;;;;;;;22.58;3.47;;;15.00;62.60;;;;;;5000986;28;20045;-55
2021/12/30 01:15:07;;;;;;;18.63;3.47;;;15.00;62.60;;;;;;5001442;28;20038;-54
2021/12/30 01:17:54;;;;;;;16.15;3.20;;;15.00;62.50;;;;;;4996458;28;20038;-53
2021/12/30 01:20:21;;;;;;;16.50;3.22;;;15.00;62.40;;;;;;5002003;28;20029;-54
2021/12/30 01:22:49;;;;;;;19.67;3.70;;;15.00;62.80;;;;;;4998961;28;20025;-55
2021/12/30 01:25:17;;;;;;;22.42;3.92;;;15.00;62.20;;;;;;5001859;28;20030;-52
2021/12/30 01:27:44;;;;;;;18.40;4.32;;;15.00;62.80;;;;;;4996964;28;20077;-53
2021/12/30 01:30:15;;;;;;;12.45;2.90;;;15.00;61.90;;;;;;4999914;28;20363;-55
2021/12/30 01:32:42;;;;;;;16.95;3.65;;;15.00;62.10;;;;;;4998256;28;20018;-54
2021/12/30 01:35:11;;;;;;;22.23;3.88;;;15.00;62.30;;;;;;5002002;28;20044;-55
2021/12/30 01:37:37;;;;;;;17.92;3.03;;;15.00;62.10;;;;;;4997762;28;20038;-53
2021/12/30 01:40:09;;;;;;;16.13;3.20;;;15.00;62.10;;;;;;5000757;28;20398;-55
2021/12/30 01:42:36;;;;;;;12.77;2.75;;;15.00;62.00;;;;;;4997079;28;20170;-56
2021/12/30 01:45:04;;;;;;;16.40;3.42;;;15.00;62.10;;;;;;4999154;28;20034;-56
2021/12/30 01:47:30;;;;;;;19.30;3.90;;;15.00;62.00;;;;;;4995843;28;20026;-54
2021/12/30 01:49:56;;;;;;;16.80;2.90;;;15.00;62.00;;;;;;5000070;28;20029;-55
2021/12/30 01:52:22;;;;;;;16.88;3.22;;;15.00;62.00;;;;;;4998995;28;20036;-53
2021/12/30 01:54:48;;;;;;;17.20;2.83;;;15.00;62.00;;;;;;4999008;28;21044;-51
2021/12/30 01:57:15;;;;;;;15.23;2.97;;;15.00;61.90;;;;;;4995012;28;20041;-55
2021/12/30 01:59:41;;;;;;;15.07;3.10;;;14.90;61.80;;;;;;4996672;28;20034;-54
2021/12/30 02:02:07;;;;;;;14.20;2.55;;;14.90;61.80;;;;;;4998491;28;20029;-56
2021/12/30 02:04:34;;;;;;;15.13;2.45;;;14.90;61.80;;;;;;4998530;28;20494;-54
2021/12/30 02:07:00;;;;;;;15.15;2.75;;;14.90;61.80;;;;;;5000048;28;20042;-57
2021/12/30 02:09:29;;;;;;;17.50;2.80;;;14.90;61.90;;;;;;5000686;28;20057;-53
2021/12/30 02:11:55;;;;;;;16.77;3.40;;;14.90;61.90;;;;;;4982774;28;20025;-56
2021/12/30 02:14:22;;;;;;;14.77;2.65;;;14.90;62.00;;;;;;5001622;28;20026;-57
2021/12/30 02:16:49;;;;;;;11.02;2.42;;;14.90;62.00;;;;;;4997934;28;20050;-51
2021/12/30 02:19:15;;;;;;;15.35;3.08;;;14.90;62.70;;;;;;4999695;28;20050;-53
2021/12/30 02:21:41;;;;;;;14.27;2.47;;;14.90;62.10;;;;;;5004868;28;20026;-53
2021/12/30 02:24:07;;;;;;;20.70;2.78;;;14.90;62.20;;;;;;5001529;28;20482;-57
2021/12/30 02:26:34;;;;;;;11.73;3.65;;;14.90;62.30;;;;;;5003072;28;20470;-56
2021/12/30 02:29:00;;;;;;;14.95;2.70;;;14.90;62.30;;;;;;5001605;28;20488;-53
2021/12/30 02:31:28;;;;;;;11.93;2.33;;;14.90;62.40;;;;;;5001987;28;20032;-54
2021/12/30 02:33:56;;;;;;;14.98;2.45;;;14.90;62.40;;;;;;5003955;28;20030;-53
2021/12/30 02:36:26;;;;;;;10.68;2.50;;;14.90;62.50;;;;;;4986564;28;20037;-54
2021/12/30 02:38:53;;;;;;;10.25;2.28;;;14.90;62.40;;;;;;4979221;28;20037;-55
2021/12/30 02:41:19;;;;;;;16.75;2.83;;;14.90;62.60;;;;;;4998340;28;20042;-54
2021/12/30 02:43:48;;;;;;;15.23;3.00;;;14.90;62.60;;;;;;5002384;28;20922;-55
2021/12/30 02:46:16;;;;;;;9.50;2.50;;;15.00;62.90;;;;;;5001919;28;20033;-55
2021/12/30 02:48:42;;;;;;;8.43;2.20;;;15.00;62.90;;;;;;4983778;28;20038;-54
2021/12/30 02:51:10;;;;;;;11.80;2.30;;;15.00;63.10;;;;;;5004069;28;20018;-50
2021/12/30 02:53:37;;;;;;;11.90;2.17;;;15.00;63.30;;;;;;5004468;28;20029;-57
2021/12/30 02:56:05;;;;;;;11.95;2.42;;;15.00;63.50;;;;;;5000130;28;20412;-55
2021/12/30 02:58:31;;;;;;;13.02;2.33;;;15.00;63.70;;;;;;4999760;28;20478;-56
2021/12/30 03:01:13;;;;;;;8.60;2.05;;;15.00;63.90;;;;;;4984425;28;20332;-56
2021/12/30 03:03:40;;;;;;;12.23;2.30;;;15.00;64.30;;;;;;5002153;28;20504;-56
2021/12/30 03:06:09;;;;;;;11.02;2.20;;;15.00;64.40;;;;;;5004297;28;20037;-55
2021/12/30 03:08:36;;;;;;;11.48;2.33;;;15.00;65.20;;;;;;5001228;28;20378;-57
2021/12/30 03:11:04;;;;;;;9.75;1.98;;;15.00;64.60;;;;;;5001322;28;20041;-56
2021/12/30 03:13:32;;;;;;;9.23;2.25;;;15.00;64.70;;;;;;5003725;28;20377;-57
2021/12/30 03:16:08;;;;;;;11.57;2.33;;;15.00;64.80;;;;;;5001682;28;20041;-57
2021/12/30 03:18:36;;;;;;;9.98;2.25;;;15.00;64.90;;;;;;5000805;28;20041;-57
2021/12/30 03:21:04;;;;;;;12.27;2.47;;;15.00;64.90;;;;;;5003127;28;20022;-57
2021/12/30 03:23:31;;;;;;;13.43;2.28;;;14.90;64.90;;;;;;5002239;28;20034;-57
2021/12/30 03:25:57;;;;;;;11.60;2.10;;;15.00;65.00;;;;;;4984904;28;20060;-53
2021/12/30 03:28:23;;;;;;;10.70;2.15;;;15.00;64.90;;;;;;4999658;28;20030;-56
2021/12/30 03:30:51;;;;;;;13.60;2.50;;;15.00;64.90;;;;;;4998457;28;20492;-56
2021/12/30 03:33:20;;;;;;;8.80;1.92;;;15.00;64.90;;;;;;5000738;28;20038;-57
2021/12/30 03:35:47;;;;;;;11.27;2.22;;;15.00;65.00;;;;;;5002832;28;20409;-56
2021/12/30 03:38:13;;;;;;;9.68;2.08;;;15.00;65.00;;;;;;5000589;28;20647;-57
2021/12/30 03:40:39;;;;;;;6.68;2.17;;;14.90;65.00;;;;;;5002624;28;20381;-58
2021/12/30 03:43:06;;;;;;;10.15;2.00;;;15.00;65.10;;;;;;5000827;28;20022;-57
2021/12/30 03:45:32;;;;;;;15.00;2.15;;;14.90;65.10;;;;;;5001562;28;20371;-56
2021/12/30 03:47:58;;;;;;;8.73;2.05;;;14.90;65.20;;;;;;5000403;28;20614;-58
2021/12/30 03:50:28;;;;;;;7.63;1.90;;;14.90;65.20;;;;;;5002334;28;20034;-56
2021/12/30 03:52:58;;;;;;;7.30;2.28;;;14.90;65.20;;;;;;5002361;28;20045;-55
2021/12/30 03:55:26;;;;;;;10.65;2.20;;;14.90;65.30;;;;;;5000231;28;20414;-57
2021/12/30 03:57:54;;;;;;;7.85;1.88;;;14.90;65.30;;;;;;4982156;28;20033;-56
2021/12/30 04:00:21;;;;;;;9.02;1.88;;;14.90;65.30;;;;;;5001561;28;20030;-58
2021/12/30 04:02:48;;;;;;;12.35;3.13;;;14.90;65.40;;;;;;5000218;28;20030;-55
2021/12/30 04:05:14;;;;;;;13.82;1.90;;;14.90;65.50;;;;;;5002725;28;20049;-56
2021/12/30 04:07:40;;;;;;;10.80;1.95;;;14.90;65.60;;;;;;4999771;28;20030;-58
2021/12/30 04:10:09;;;;;;;6.82;1.55;;;14.90;65.60;;;;;;5002324;28;20402;-56
2021/12/30 04:12:35;;;;;;;10.18;2.03;;;14.90;65.70;;;;;;5003399;28;20029;-57
2021/12/30 04:15:04;;;;;;;7.35;1.50;;;14.90;65.80;;;;;;5001712;28;20474;-57
2021/12/30 04:17:31;;;;;;;8.88;1.50;;;14.90;65.90;;;;;;4996380;28;20445;-57
2021/12/30 04:19:57;;;;;;;7.47;1.50;;;14.80;66.00;;;;;;5000378;28;20044;-57
2021/12/30 04:22:23;;;;;;;5.50;1.65;;;14.80;66.00;;;;;;5001700;28;20371;-59
2021/12/30 04:24:50;;;;;;;6.40;1.10;;;14.80;66.20;;;;;;5000730;28;20050;-57
2021/12/30 04:27:16;;;;;;;10.98;1.90;;;14.80;66.20;;;;;;4999820;28;20042;-53
2021/12/30 04:29:43;;;;;;;7.43;1.77;;;14.80;66.40;;;;;;5001466;28;20048;-57
2021/12/30 04:32:09;;;;;;;7.53;1.23;;;14.80;66.50;;;;;;4999706;28;20041;-55
2021/12/30 04:34:35;;;;;;;4.28;1.35;;;14.80;66.50;;;;;;5002567;28;20025;-57
2021/12/30 04:37:02;;;;;;;7.28;2.08;;;14.80;66.80;;;;;;5001007;28;20041;-59
2021/12/30 04:39:29;;;;;;;5.82;1.35;;;14.80;67.00;;;;;;5000274;28;20026;-57
2021/12/30 04:41:58;;;;;;;6.75;1.35;;;14.80;67.30;;;;;;4998724;28;21075;-55
2021/12/30 04:44:28;;;;;;;5.43;1.25;;;14.90;67.70;;;;;;5001630;28;20042;-58
2021/12/30 04:46:56;;;;;;;4.28;1.13;;;14.90;68.20;;;;;;5000547;28;20397;-57
2021/12/30 04:49:23;;;;;;;5.63;1.15;;;15.00;68.20;;;;;;4998933;28;20018;-57
2021/12/30 04:51:50;;;;;;;2.05;0.90;;;15.00;68.10;;;;;;5001672;28;20249;-57
2021/12/30 04:54:17;;;;;;;4.10;1.02;;;15.00;68.10;;;;;;5000754;28;20030;-57
2021/12/30 04:56:43;;;;;;;2.08;0.55;;;15.10;68.00;;;;;;4999471;28;20377;-57
2021/12/30 04:59:10;;;;;;;3.17;0.90;;;15.10;67.90;;;;;;4997735;28;20189;-59
2021/12/30 05:01:38;;;;;;;2.50;0.73;;;15.20;67.90;;;;;;5000143;28;20496;-55
2021/12/30 05:04:05;;;;;;;3.22;0.55;;;15.20;67.80;;;;;;4999801;28;20037;-58
2021/12/30 05:06:34;;;;;;;1.90;0.77;;;15.30;67.70;;;;;;4998306;28;20536;-58
2021/12/30 05:09:00;;;;;;;2.15;0.50;;;15.30;67.70;;;;;;5000535;28;20459;-56
2021/12/30 05:11:26;;;;;;;5.10;0.70;;;15.30;67.60;;;;;;5000549;28;20417;-57
2021/12/30 05:13:53;;;;;;;2.35;0.60;;;15.30;67.60;;;;;;5000212;28;20030;-59
2021/12/30 05:16:19;;;;;;;2.83;0.80;;;15.30;67.60;;;;;;4990734;28;20040;-56
2021/12/30 05:18:48;;;;;;;3.03;0.55;;;15.40;67.70;;;;;;4963641;28;20046;-56
2021/12/30 05:21:14;;;;;;;2.65;0.70;;;15.40;67.70;;;;;;4964414;28;20046;-57
2021/12/30 05:23:40;;;;;;;2.47;0.75;;;15.40;67.60;;;;;;4975435;28;20049;-56
2021/12/30 05:26:06;;;;;;;5.47;0.90;;;15.40;67.70;;;;;;4963625;28;20050;-59
2021/12/30 05:28:32;;;;;;;1.65;0.50;;;15.40;67.60;;;;;;4965061;28;20043;-59
2021/12/30 05:30:59;;;;;;;6.43;1.38;;;15.40;67.70;;;;;;4964329;28;20475;-55
2021/12/30 05:33:25;;;;;;;4.68;0.32;;;15.40;67.70;;;;;;4964881;28;20026;-57
2021/12/30 05:35:51;;;;;;;2.25;0.60;;;15.40;67.70;;;;;;4963033;28;20034;-57
2021/12/30 05:38:17;;;;;;;1.90;0.40;;;15.40;67.70;;;;;;4964836;28;20023;-54
2021/12/30 05:40:44;;;;;;;2.42;0.80;;;15.40;67.90;;;;;;4966070;28;20960;-55
2021/12/30 05:43:10;;;;;;;2.03;0.40;;;15.40;68.00;;;;;;4964511;28;20027;-55
2021/12/30 05:45:36;;;;;;;1.45;0.40;;;15.40;68.00;;;;;;4965033;28;20954;-57
2021/12/30 05:48:03;;;;;;;2.72;0.57;;;15.40;68.00;;;;;;4962787;28;20031;-54
2021/12/30 05:50:33;;;;;;;8.98;4.13;;;15.40;68.00;;;;;;4964707;28;20053;-55
2021/12/30 05:52:59;;;;;;;3.78;1.73;;;15.40;68.00;;;;;;4963878;28;20034;-57
2021/12/30 05:55:25;;;;;;;1.52;0.80;;;15.40;68.10;;;;;;4964991;28;20034;-53
2021/12/30 07:14:19;;;;;;;0.63;0.30;;;15.60;69.70;;;;;;6088555;23;20017;-55
2021/12/30 07:16:46;;;;;;;0.60;0.30;;;15.70;69.90;;;;;;4997897;28;20516;-53
2021/12/30 07:19:13;;;;;;;0.70;0.05;;;15.70;69.80;;;;;;4999601;28;20037;-53
2021/12/30 07:21:40;;;;;;;0.57;0.10;;;15.70;69.80;;;;;;4997272;28;20381;-54
2021/12/30 07:24:06;;;;;;;0.98;0.20;;;15.70;69.90;;;;;;4992377;28;20033;-53
2021/12/30 07:26:33;;;;;;;2.95;0.40;;;15.70;69.90;;;;;;4999918;28;20038;-53
2021/12/30 07:28:59;;;;;;;0.20;0.20;;;15.70;69.90;;;;;;5000063;28;20470;-52
2021/12/30 07:31:26;;;;;;;0.65;0.20;;;15.70;70.00;;;;;;4992183;28;20034;-51
2021/12/30 07:33:52;;;;;;;0.32;0.25;;;15.70;70.10;;;;;;4986013;28;20030;-54
2021/12/30 07:36:18;;;;;;;1.00;0.10;;;15.80;70.10;;;;;;5000711;28;20482;-53
2021/12/30 07:38:45;;;;;;;1.42;0.35;;;15.80;70.10;;;;;;4990252;28;20351;-53
2021/12/30 07:41:11;;;;;;;0.30;0.20;;;15.80;70.00;;;;;;5000795;28;20030;-53
2021/12/30 07:43:37;;;;;;;1.60;0.30;;;15.80;70.10;;;;;;4998578;28;20054;-56
2021/12/30 07:46:06;;;;;;;0.60;0.20;;;15.80;70.10;;;;;;4983564;28;20042;-52
2021/12/30 07:48:32;;;;;;;1.20;0.30;;;15.80;70.10;;;;;;4982568;28;20043;-54
2021/12/30 07:50:59;;;;;;;2.15;0.20;;;15.80;70.00;;;;;;4992303;28;20029;-52
2021/12/30 07:53:25;;;;;;;1.45;0.32;;;15.90;70.80;;;;;;4974410;28;20434;-50
2021/12/30 07:55:51;;;;;;;0.55;0.30;;;15.90;70.10;;;;;;4980706;28;20386;-52
2021/12/30 07:58:17;;;;;;;0.00;0.00;;;15.90;70.20;;;;;;4981077;28;20039;-54
2021/12/30 08:00:43;;;;;;;0.40;0.10;;;15.90;70.10;;;;;;4981387;28;20746;-52
2021/12/30 08:03:09;;;;;;;0.15;0.15;;;15.90;70.10;;;;;;4980781;28;20029;-53
2021/12/30 08:05:36;;;;;;;0.90;0.13;;;15.90;70.30;;;;;;4983081;28;20034;-54
2021/12/30 08:08:03;;;;;;;0.75;0.30;;;16.00;70.40;;;;;;4982294;28;20057;-54
2021/12/30 08:10:29;;;;;;;2.83;0.30;;;16.00;70.40;;;;;;4982845;28;20037;-52
2021/12/30 08:12:56;;;;;;;1.20;0.38;;;16.00;70.20;;;;;;4981755;28;20513;-55
2021/12/30 08:15:23;;;;;;;0.77;0.40;;;16.00;70.10;;;;;;4982556;28;20054;-55
2021/12/30 08:17:50;;;;;;;0.30;0.20;;;16.00;70.10;;;;;;4976243;28;20378;-55
2021/12/30 08:20:18;;;;;;;0.85;0.40;;;16.00;70.10;;;;;;4981090;28;20037;-57
2021/12/30 08:22:44;;;;;;;2.85;0.40;;;16.00;70.00;;;;;;4980063;28;20029;-56
2021/12/30 08:25:12;;;;;;;0.57;0.30;;;16.00;69.90;;;;;;4961365;28;20517;-57
2021/12/30 08:27:39;;;;;;;0.20;0.20;;;16.10;69.90;;;;;;4975288;28;20030;-56
2021/12/30 08:30:10;;;;;;;1.05;0.25;;;16.10;70.00;;;;;;4981298;28;20026;-54
2021/12/30 08:32:38;;;;;;;0.30;0.30;;;16.10;70.00;;;;;;4959922;28;20073;-55
2021/12/30 08:35:06;;;;;;;0.20;0.10;;;16.10;70.00;;;;;;4980916;28;20471;-53
2021/12/30 08:37:34;;;;;;;0.28;0.10;;;16.10;69.90;;;;;;4979888;28;20035;-54
2021/12/30 08:40:02;;;;;;;0.13;0.10;;;16.10;69.80;;;;;;4978331;28;20042;-54
2021/12/30 08:42:29;;;;;;;0.70;0.20;;;16.20;69.90;;;;;;4977135;28;20030;-50
2021/12/30 08:44:57;;;;;;;0.10;0.10;;;16.20;69.90;;;;;;4980320;28;20053;-55
2021/12/30 08:47:24;;;;;;;0.30;0.17;;;16.20;69.90;;;;;;4974848;28;20509;-53
2021/12/30 08:49:50;;;;;;;0.35;0.20;;;16.20;69.70;;;;;;4960207;28;20038;-56
2021/12/30 08:52:20;;;;;;;0.28;0.20;;;16.20;69.80;;;;;;4976967;28;20042;-56
2021/12/30 08:54:47;;;;;;;0.30;0.15;;;16.20;69.70;;;;;;4982513;28;20030;-53
2021/12/30 08:57:15;;;;;;;0.45;0.22;;;16.20;69.80;;;;;;4977271;28;20041;-57
2021/12/30 08:59:42;;;;;;;0.10;0.10;;;16.20;69.80;;;;;;4981009;28;20042;-55
2021/12/30 09:02:08;;;;;;;0.38;0.15;;;16.30;69.90;;;;;;4976984;28;20390;-54
2021/12/30 09:04:35;;;;;;;0.32;0.10;;;16.30;69.90;;;;;;4977063;28;20038;-56
2021/12/30 09:07:02;;;;;;;1.52;0.95;;;16.30;69.80;;;;;;4976707;28;20493;-55
2021/12/30 09:09:28;;;;;;;3.08;0.70;;;16.30;69.80;;;;;;4978935;28;20379;-55
2021/12/30 09:11:56;;;;;;;0.50;0.20;;;16.30;69.90;;;;;;4981290;28;20022;-56
2021/12/30 09:14:22;;;;;;;0.32;0.10;;;16.30;70.00;;;;;;4981560;28;20313;-54
2021/12/30 09:16:50;;;;;;;0.60;0.20;;;16.40;70.00;;;;;;4979778;28;20054;-55
2021/12/30 09:19:17;;;;;;;0.20;0.20;;;16.40;69.80;;;;;;4981750;28;20390;-55
2021/12/30 09:21:43;;;;;;;0.35;0.20;;;16.40;69.80;;;;;;4979803;28;20034;-53
2021/12/30 09:24:11;;;;;;;2.28;0.30;;;16.50;69.70;;;;;;4978155;28;20041;-54
2021/12/30 09:26:38;;;;;;;2.33;0.20;;;16.50;69.70;;;;;;4978084;28;20594;-57
2021/12/30 09:29:10;;;;;;;0.20;0.10;;;16.50;69.60;;;;;;4980496;28;20034;-56
2021/12/30 09:31:48;;;;;;;0.20;0.20;;;16.60;69.70;;;;;;4980501;28;20025;-57
2021/12/30 09:34:15;;;;;;;0.40;0.20;;;16.60;69.40;;;;;;4976755;28;20042;-58
2021/12/30 09:36:41;;;;;;;0.17;0.10;;;16.60;69.30;;;;;;4981261;28;20030;-54
2021/12/30 09:39:11;;;;;;;0.65;0.15;;;16.70;69.30;;;;;;4981203;28;20506;-55
2021/12/30 09:41:39;;;;;;;0.05;0.05;;;16.70;69.30;;;;;;4981031;28;20031;-55
2021/12/30 09:44:07;;;;;;;0.57;0.38;;;16.70;69.10;;;;;;4981048;28;20045;-55
2021/12/30 09:46:34;;;;;;;0.13;0.10;;;16.70;69.00;;;;;;4980113;28;20238;-55
2021/12/30 09:49:06;;;;;;;0.52;0.10;;;16.80;68.90;;;;;;4980166;28;20035;-56
2021/12/30 09:51:35;;;;;;;0.70;0.32;;;16.80;68.90;;;;;;4980714;28;20030;-54
2021/12/30 09:54:04;;;;;;;1.05;0.30;;;16.80;68.80;;;;;;4980910;28;20019;-55
2021/12/30 09:56:31;;;;;;;0.10;0.10;;;16.80;68.70;;;;;;4980877;28;20039;-55
2021/12/30 09:58:57;;;;;;;0.55;0.13;;;16.90;68.80;;;;;;4954473;28;20034;-55
2021/12/30 10:01:23;;;;;;;1.10;0.20;;;16.90;68.70;;;;;;4969407;28;21850;-56
2021/12/30 10:03:55;;;;;;;1.48;0.20;;;16.90;68.70;;;;;;4972036;28;20038;-57
2021/12/30 10:06:22;;;;;;;0.05;0.05;;;16.90;68.80;;;;;;4970688;28;20049;-52
2021/12/30 10:08:55;;;;;;;0.45;0.25;;;17.00;68.80;;;;;;4968554;28;20935;-55
2021/12/30 10:11:22;;;;;;;0.25;0.20;;;17.00;68.90;;;;;;4971279;28;20030;-57
2021/12/30 10:13:50;;;;;;;0.40;0.20;;;17.00;68.90;;;;;;4974591;28;20102;-53
2021/12/30 10:16:17;;;;;;;0.55;0.20;;;17.00;68.90;;;;;;4974842;28;20383;-57
2021/12/30 10:18:45;;;;;;;1.23;0.50;;;17.10;68.80;;;;;;4978404;28;20043;-53
2021/12/30 10:21:22;;;;;;;1.50;0.60;;;17.10;68.70;;;;;;4979959;28;20497;-52
2021/12/30 10:23:51;;;;;;;0.30;0.30;;;17.10;68.60;;;;;;4978950;28;20038;-51
2021/12/30 10:26:18;;;;;;;2.30;0.35;;;17.20;68.50;;;;;;4977888;28;20030;-53
2021/12/30 10:28:49;;;;;;;0.35;0.20;;;17.20;68.60;;;;;;4979305;28;20042;-53
2021/12/30 10:31:27;;;;;;;0.38;0.20;;;17.20;68.40;;;;;;4979436;28;20034;-52
2021/12/30 10:33:57;;;;;;;0.82;0.40;;;17.20;68.20;;;;;;4979001;28;20530;-54
2021/12/30 10:36:29;;;;;;;0.63;0.50;;;17.30;68.20;;;;;;4979417;28;20053;-56
2021/12/30 10:39:30;;;;;;;1.30;1.00;;;17.30;68.10;;;;;;4978871;28;20382;-56
2021/12/30 10:42:09;;;;;;;1.50;1.00;;;17.30;68.20;;;;;;4984049;28;20861;-56
2021/12/30 10:44:56;;;;;;;1.13;0.85;;;17.30;67.90;;;;;;4982030;28;20039;-56
2021/12/30 10:47:28;;;;;;;1.73;0.90;;;17.30;67.70;;;;;;4973633;28;20045;-56
2021/12/30 10:50:07;;;;;;;1.73;1.02;;;17.40;67.90;;;;;;4974091;28;20037;-56
2021/12/30 10:52:34;;;;;;;1.10;0.73;;;17.30;67.70;;;;;;4982845;28;20042;-58
2021/12/30 10:55:10;;;;;;;4.75;0.80;;;17.40;67.80;;;;;;4983129;28;20049;-56
2021/12/30 10:57:37;;;;;;;2.08;0.68;;;17.40;67.80;;;;;;4982339;28;20042;-59
2021/12/30 11:00:06;;;;;;;2.17;0.73;;;17.40;67.80;;;;;;4983375;28;20341;-55
2021/12/30 11:02:33;;;;;;;3.70;1.02;;;17.40;67.90;;;;;;4980633;28;20022;-57
2021/12/30 11:05:06;;;;;;;0.40;0.30;;;17.40;68.00;;;;;;4982508;28;20038;-56
2021/12/30 11:07:53;;;;;;;0.50;0.30;;;17.40;67.70;;;;;;4982347;28;20027;-57
2021/12/30 11:10:32;;;;;;;1.58;0.38;;;17.40;68.10;;;;;;4983036;28;20022;-58
2021/12/30 11:13:10;;;;;;;0.43;0.25;;;17.40;68.30;;;;;;4979563;28;20498;-53
2021/12/30 11:15:37;;;;;;;0.25;0.20;;;17.40;68.00;;;;;;4980367;28;20372;-59
2021/12/30 11:18:07;;;;;;;2.67;0.20;;;17.50;68.40;;;;;;4981082;28;20046;-55
2021/12/30 11:20:44;;;;;;;3.40;0.30;;;17.40;68.30;;;;;;4980222;28;20038;-56
2021/12/30 11:23:13;;;;;;;0.45;0.30;;;17.50;68.40;;;;;;4981472;28;20053;-56
2021/12/30 11:25:39;;;;;;;0.25;0.20;;;17.40;68.50;;;;;;4982876;28;20030;-57
2021/12/30 11:28:06;;;;;;;0.20;0.20;;;17.40;68.40;;;;;;4983415;28;20045;-56
2021/12/30 11:30:32;;;;;;;0.20;0.10;;;17.50;68.50;;;;;;4963070;28;20481;-56
2021/12/30 11:32:59;;;;;;;0.30;0.15;;;17.50;68.50;;;;;;4981198;28;20030;-56
2021/12/30 11:35:27;;;;;;;0.10;0.10;;;17.50;68.50;;;;;;4980517;28;20027;-53
2021/12/30 11:37:55;;;;;;;0.25;0.20;;;17.50;68.40;;;;;;4981087;28;20028;-56
2021/12/30 11:40:25;;;;;;;1.70;0.80;;;17.50;68.00;;;;;;4962980;28;20042;-54
2021/12/30 11:42:54;;;;;;;1.75;0.82;;;17.50;67.70;;;;;;4961816;28;20053;-54
2021/12/30 11:45:34;;;;;;;0.30;0.30;;;17.60;67.60;;;;;;4980667;28;20034;-53
2021/12/30 11:48:03;;;;;;;3.20;0.20;;;17.50;67.20;;;;;;4981189;28;20034;-52
2021/12/30 11:50:32;;;;;;;1.20;0.50;;;17.60;67.20;;;;;;4979478;28;20030;-54
2021/12/30 11:53:08;;;;;;;0.20;0.10;;;17.60;66.90;;;;;;4982695;28;20026;-56
2021/12/30 11:55:54;;;;;;;0.57;0.40;;;17.60;66.80;;;;;;4982209;28;20038;-56
2021/12/30 11:58:32;;;;;;;0.40;0.25;;;17.60;67.00;;;;;;4981043;28;20395;-56
2021/12/30 12:01:10;;;;;;;1.90;0.43;;;17.70;66.30;;;;;;4978212;28;20042;-55
2021/12/30 12:03:40;;;;;;;1.23;0.40;;;17.60;66.60;;;;;;4979059;28;20041;-56
2021/12/30 12:06:26;;;;;;;1.75;0.40;;;17.70;66.40;;;;;;4980563;28;20041;-55
2021/12/30 12:09:04;;;;;;;7.72;0.45;;;17.70;65.90;;;;;;4981069;28;20030;-57
2021/12/30 12:11:51;;;;;;;0.60;0.40;;;17.70;65.90;;;;;;4981022;28;20023;-56
2021/12/30 12:14:39;;;;;;;1.05;0.38;;;17.70;66.10;;;;;;4983020;28;20050;-50
2021/12/30 12:17:11;;;;;;;0.50;0.40;;;17.80;66.20;;;;;;4978908;28;20034;-53
2021/12/30 12:19:49;;;;;;;1.13;0.40;;;17.80;66.20;;;;;;4977752;28;20390;-55
2021/12/30 12:22:18;;;;;;;1.48;0.40;;;17.80;66.30;;;;;;4977218;28;20048;-53
2021/12/30 12:25:10;;;;;;;0.90;0.45;;;17.80;66.20;;;;;;4976804;28;20033;-54
2021/12/30 12:27:50;;;;;;;1.73;0.68;;;17.70;66.30;;;;;;4975693;28;20046;-52
2021/12/30 12:30:38;;;;;;;0.80;0.60;;;17.80;66.20;;;;;;4972841;28;20034;-56
2021/12/30 12:33:25;;;;;;;2.50;0.60;;;17.70;66.40;;;;;;4972219;28;20042;-56
2021/12/30 12:35:52;;;;;;;2.33;0.60;;;17.70;66.40;;;;;;4976582;28;20375;-53
2021/12/30 12:38:43;;;;;;;1.45;0.70;;;17.70;66.30;;;;;;4975899;28;20026;-55
2021/12/30 12:41:25;;;;;;;6.65;3.40;;;17.70;66.00;;;;;;4982224;28;20505;-54
2021/12/30 12:43:55;;;;;;;3.33;1.70;;;17.70;66.00;;;;;;4982686;28;20026;-51
2021/12/30 12:46:49;;;;;;;2.25;1.38;;;17.70;66.00;;;;;;4982022;28;20038;-55
2021/12/30 12:49:33;;;;;;;2.25;1.13;;;17.70;65.90;;;;;;4980752;28;20486;-54
2021/12/30 12:52:02;;;;;;;3.20;0.77;;;17.80;65.80;;;;;;4982759;28;20037;-54
2021/12/30 12:54:46;;;;;;;4.07;1.10;;;17.80;65.90;;;;;;4981669;28;20041;-53
2021/12/30 12:57:18;;;;;;;3.88;1.85;;;17.70;65.60;;;;;;4982619;28;20030;-54
2021/12/30 12:59:45;;;;;;;4.85;1.83;;;17.80;65.40;;;;;;4974977;28;20510;-54
2021/12/30 13:02:13;;;;;;;2.78;1.48;;;17.80;65.50;;;;;;4976347;28;20540;-56
2021/12/30 13:04:40;;;;;;;4.80;1.10;;;17.80;65.40;;;;;;4978305;28;20022;-56
2021/12/30 13:07:15;;;;;;;0.88;0.70;;;17.80;65.10;;;;;;4980299;28;20478;-56
2021/12/30 13:09:50;;;;;;;1.00;0.65;;;17.80;64.90;;;;;;4981097;28;20495;-53
2021/12/30 13:12:16;;;;;;;2.50;0.50;;;17.80;64.40;;;;;;4981861;28;20029;-55
2021/12/30 13:14:45;;;;;;;2.55;0.68;;;17.80;64.40;;;;;;4980581;28;20047;-55
2021/12/30 13:17:14;;;;;;;2.70;0.82;;;17.80;63.80;;;;;;4976800;28;20473;-53
2021/12/30 13:19:46;;;;;;;2.10;0.50;;;17.80;63.30;;;;;;4980613;28;20034;-57
2021/12/30 13:22:15;;;;;;;2.67;0.63;;;17.80;63.40;;;;;;4982131;28;20049;-53
2021/12/30 13:24:44;;;;;;;0.68;0.38;;;17.80;63.50;;;;;;4981224;28;20041;-55
2021/12/30 13:27:13;;;;;;;1.58;0.50;;;17.70;63.40;;;;;;4976647;28;20054;-56
2021/12/30 13:29:46;;;;;;;1.20;0.55;;;17.70;63.20;;;;;;4981677;28;20069;-55
2021/12/30 13:32:24;;;;;;;2.95;0.68;;;17.70;63.10;;;;;;4980382;28;20038;-57
2021/12/30 13:34:57;;;;;;;5.22;0.80;;;17.70;63.20;;;;;;4980925;28;20022;-54
2021/12/30 13:37:26;;;;;;;1.20;0.50;;;17.70;63.30;;;;;;4979983;28;20042;-56
2021/12/30 13:39:55;;;;;;;2.58;0.60;;;17.70;63.10;;;;;;4981569;28;20071;-55
2021/12/30 13:42:25;;;;;;;1.73;0.50;;;17.70;63.00;;;;;;4976456;28;20055;-53
2021/12/30 13:44:55;;;;;;;1.15;0.50;;;17.70;63.10;;;;;;4979890;28;20382;-53
2021/12/30 13:47:21;;;;;;;2.63;0.85;;;17.70;63.20;;;;;;4975326;28;20030;-55
2021/12/30 13:49:51;;;;;;;4.75;2.08;;;17.70;62.80;;;;;;4961249;28;20510;-52
2021/12/30 13:52:19;;;;;;;5.25;1.80;;;17.70;62.70;;;;;;4980848;28;20057;-55
2021/12/30 13:55:09;;;;;;;1.85;0.80;;;17.70;62.90;;;;;;4981129;28;20375;-55
2021/12/30 13:57:35;;;;;;;1.55;0.47;;;17.70;62.60;;;;;;4976293;28;20402;-54
2021/12/30 14:00:03;;;;;;;1.52;0.57;;;17.70;62.70;;;;;;4979712;28;20027;-57
2021/12/30 14:02:30;;;;;;;0.22;0.22;;;17.70;62.30;;;;;;4978490;28;20030;-55
2021/12/30 14:05:14;;;;;;;1.23;0.55;;;17.70;62.40;;;;;;4979964;28;21126;-56
2021/12/30 14:07:44;;;;;;;1.40;0.47;;;17.70;62.10;;;;;;4980052;28;20061;-57
2021/12/30 14:10:16;;;;;;;0.73;0.45;;;17.70;61.90;;;;;;4975985;28;20030;-55